Time;durP1;ratioP1;P1;durP2;ratioP2;P2;SDS_P1;SDS_P2;PMS_P1;PMS_P2;Temp;Humidity;BMP_temperature;BMP_pressure;BME280_temperature;BME280_humidity;BME280_pressure;Samples;Min_cycle;Max_cycle;Signal;HPM_P1;HPM_P2
2022/12/13 00:01:19;;;;;;;55.22;26.45;;;;;;;;;;5095514;27;20143;-44
2022/12/13 00:03:45;;;;;;;50.17;24.13;;;;;;;;;;5094765;27;20510;-45
2022/12/13 00:06:11;;;;;;;58.67;25.67;;;;;;;;;;5094275;28;20071;-42
2022/12/13 00:08:38;;;;;;;53.17;25.05;;;;;;;;;;5092679;27;20035;-42
2022/12/13 00:11:05;;;;;;;58.70;26.48;;;;;;;;;;5093951;27;20400;-42
2022/12/13 00:13:32;;;;;;;53.17;24.73;;;;;;;;;;5093822;28;20759;-42
2022/12/13 00:15:59;;;;;;;51.22;22.88;;;;;;;;;;5093949;27;20035;-43
2022/12/13 00:18:25;;;;;;;54.00;24.23;;;;;;;;;;5091798;27;20044;-45
2022/12/13 00:20:51;;;;;;;57.80;25.23;;;;;;;;;;5092071;27;20172;-43
2022/12/13 00:23:17;;;;;;;55.80;26.67;;;;;;;;;;5093044;27;20535;-46
2022/12/13 00:25:43;;;;;;;49.58;23.95;;;;;;;;;;5092506;27;20038;-42
2022/12/13 00:28:10;;;;;;;52.03;25.10;;;;;;;;;;5092714;28;20067;-44
2022/12/13 00:30:36;;;;;;;48.00;24.63;;;;;;;;;;5093354;27;20104;-44
2022/12/13 00:33:02;;;;;;;49.33;25.10;;;;;;;;;;5092426;27;20543;-46
2022/12/13 00:35:28;;;;;;;57.30;26.85;;;;;;;;;;5092456;28;20100;-45
2022/12/13 00:37:54;;;;;;;51.63;24.75;;;;;;;;;;5091607;28;20693;-46
2022/12/13 00:40:20;;;;;;;50.97;24.15;;;;;;;;;;5092982;28;20035;-43
2022/12/13 00:42:47;;;;;;;49.65;24.55;;;;;;;;;;5090980;27;20059;-45
2022/12/13 00:45:14;;;;;;;46.08;23.92;;;;;;;;;;5091409;27;20525;-47
2022/12/13 00:47:40;;;;;;;46.55;23.70;;;;;;;;;;5093198;28;20047;-44
2022/12/13 00:50:06;;;;;;;49.13;23.05;;;;;;;;;;5093054;28;20047;-46
2022/12/13 00:52:35;;;;;;;45.47;23.70;;;;;;;;;;5091644;28;20473;-46
2022/12/13 00:55:01;;;;;;;56.83;24.92;;;;;;;;;;5092138;28;20772;-44
2022/12/13 00:57:27;;;;;;;49.55;23.20;;;;;;;;;;5091515;28;20055;-44
2022/12/13 00:59:54;;;;;;;48.25;23.02;;;;;;;;;;5092679;28;20050;-43
2022/12/13 01:02:20;;;;;;;47.28;22.88;;;;;;;;;;5092912;28;20426;-43
2022/12/13 01:04:46;;;;;;;46.38;22.90;;;;;;;;;;5092040;28;20112;-44
2022/12/13 01:07:12;;;;;;;47.88;23.33;;;;;;;;;;5092134;28;20850;-45
2022/12/13 01:09:38;;;;;;;46.63;22.25;;;;;;;;;;5092476;28;20621;-43
2022/12/13 01:12:05;;;;;;;43.33;22.38;;;;;;;;;;5092352;28;20088;-45
2022/12/13 01:14:34;;;;;;;39.22;22.13;;;;;;;;;;5091469;28;20098;-42
2022/12/13 01:17:00;;;;;;;44.33;21.90;;;;;;;;;;5091309;28;20568;-42
2022/12/13 01:19:27;;;;;;;46.95;22.05;;;;;;;;;;5091336;28;20127;-43
2022/12/13 01:21:54;;;;;;;45.83;22.58;;;;;;;;;;5093542;28;20044;-45
2022/12/13 01:24:23;;;;;;;43.55;22.17;;;;;;;;;;5092991;28;20131;-44
2022/12/13 01:26:50;;;;;;;49.67;21.58;;;;;;;;;;5093397;27;20179;-44
2022/12/13 01:29:16;;;;;;;48.65;22.98;;;;;;;;;;5092810;28;20046;-43
2022/12/13 01:31:42;;;;;;;53.00;23.23;;;;;;;;;;5092926;28;20043;-43
2022/12/13 01:34:10;;;;;;;49.15;23.55;;;;;;;;;;5093479;28;20032;-44
2022/12/13 01:36:36;;;;;;;41.35;21.65;;;;;;;;;;5093309;28;20039;-43
2022/12/13 01:39:03;;;;;;;48.90;23.25;;;;;;;;;;5092481;28;20039;-44
2022/12/13 01:41:29;;;;;;;47.08;24.05;;;;;;;;;;5092892;28;20044;-44
2022/12/13 01:43:59;;;;;;;42.90;23.13;;;;;;;;;;5093978;28;20035;-41
2022/12/13 01:46:26;;;;;;;40.63;21.08;;;;;;;;;;5093433;28;20467;-46
2022/12/13 01:48:52;;;;;;;44.15;21.02;;;;;;;;;;5092616;28;20048;-46
2022/12/13 01:51:20;;;;;;;40.35;20.38;;;;;;;;;;5091608;28;20678;-44
2022/12/13 01:53:48;;;;;;;44.88;20.88;;;;;;;;;;5092323;28;20075;-44
2022/12/13 01:56:18;;;;;;;45.78;19.50;;;;;;;;;;5093519;27;20044;-42
2022/12/13 01:58:44;;;;;;;42.80;19.85;;;;;;;;;;5095534;27;20039;-45
2022/12/13 02:01:10;;;;;;;36.10;19.85;;;;;;;;;;5097174;27;20043;-42
2022/12/13 02:03:37;;;;;;;37.97;18.85;;;;;;;;;;5095182;27;20134;-47
2022/12/13 02:06:06;;;;;;;37.65;19.95;;;;;;;;;;5095792;28;20035;-44
2022/12/13 02:08:32;;;;;;;43.75;22.35;;;;;;;;;;5094919;27;20044;-46
2022/12/13 02:10:58;;;;;;;45.03;21.13;;;;;;;;;;5095392;27;20043;-46
2022/12/13 02:13:25;;;;;;;42.90;21.20;;;;;;;;;;5095079;27;20474;-45
2022/12/13 02:15:54;;;;;;;42.03;20.95;;;;;;;;;;5096020;27;20036;-44
2022/12/13 02:18:20;;;;;;;37.70;18.67;;;;;;;;;;5095912;27;20134;-42
2022/12/13 02:20:49;;;;;;;37.47;19.85;;;;;;;;;;5094511;27;20067;-46
2022/12/13 02:23:34;;;;;;;37.50;19.33;;;;;;;;;;5095155;28;20390;-42
2022/12/13 02:26:00;;;;;;;43.83;22.15;;;;;;;;;;5094781;27;20039;-42
2022/12/13 02:28:26;;;;;;;38.38;19.23;;;;;;;;;;5095559;27;20046;-43
2022/12/13 02:31:01;;;;;;;40.17;20.23;;;;;;;;;;5095851;27;20148;-45
2022/12/13 02:33:54;;;;;;;41.10;20.73;;;;;;;;;;5095780;27;20138;-46
2022/12/13 02:36:29;;;;;;;48.20;21.98;;;;;;;;;;5093067;27;20115;-44
2022/12/13 02:38:58;;;;;;;44.35;20.83;;;;;;;;;;5094375;27;20442;-44
2022/12/13 02:41:36;;;;;;;39.85;21.00;;;;;;;;;;5093945;27;20043;-46
2022/12/13 02:44:03;;;;;;;39.75;19.63;;;;;;;;;;5094167;27;20071;-43
2022/12/13 02:46:30;;;;;;;44.10;21.23;;;;;;;;;;5094980;27;20089;-41
2022/12/13 02:48:58;;;;;;;39.72;19.88;;;;;;;;;;5094370;27;20051;-43
2022/12/13 02:51:24;;;;;;;43.95;20.45;;;;;;;;;;5094524;27;20737;-43
2022/12/13 02:53:50;;;;;;;38.90;19.60;;;;;;;;;;5095343;27;20065;-42
2022/12/13 02:56:16;;;;;;;41.85;22.27;;;;;;;;;;5093563;27;20146;-42
2022/12/13 02:58:47;;;;;;;43.17;20.75;;;;;;;;;;5094409;27;20607;-42
2022/12/13 03:01:19;;;;;;;44.75;22.80;;;;;;;;;;5095391;27;20048;-44
2022/12/13 03:03:46;;;;;;;41.50;21.55;;;;;;;;;;5094573;27;20054;-41
2022/12/13 03:06:31;;;;;;;43.70;20.77;;;;;;;;;;5094950;27;20606;-45
2022/12/13 03:09:10;;;;;;;45.05;21.77;;;;;;;;;;5095287;27;20096;-42
2022/12/13 03:14:36;;;;;;;42.08;20.17;;;;;;;;;;5095527;27;20476;-46
2022/12/13 03:17:04;;;;;;;39.10;20.60;;;;;;;;;;5094523;27;20081;-41
2022/12/13 03:19:31;;;;;;;38.58;18.52;;;;;;;;;;5094224;28;20039;-46
2022/12/13 03:21:57;;;;;;;44.55;20.17;;;;;;;;;;5094880;27;20040;-44
2022/12/13 03:24:23;;;;;;;37.55;19.13;;;;;;;;;;5095925;27;20039;-43
2022/12/13 03:26:50;;;;;;;44.33;21.60;;;;;;;;;;5094971;27;20999;-45
2022/12/13 03:29:16;;;;;;;42.95;21.60;;;;;;;;;;5094635;27;20305;-45
2022/12/13 03:31:43;;;;;;;45.67;22.73;;;;;;;;;;5094326;27;20748;-46
2022/12/13 03:34:09;;;;;;;41.85;19.85;;;;;;;;;;5093150;27;20035;-45
2022/12/13 03:36:35;;;;;;;42.85;21.20;;;;;;;;;;5093736;28;20411;-47
2022/12/13 03:39:01;;;;;;;38.97;20.50;;;;;;;;;;5094324;27;20092;-44
2022/12/13 03:41:32;;;;;;;46.42;23.10;;;;;;;;;;5092950;27;20043;-46
2022/12/13 03:44:07;;;;;;;43.63;21.17;;;;;;;;;;5050882;28;20056;-41
2022/12/13 03:46:33;;;;;;;41.42;21.65;;;;;;;;;;5051861;28;20496;-44
2022/12/13 03:48:59;;;;;;;41.78;20.75;;;;;;;;;;5052159;28;20123;-44
2022/12/13 03:51:25;;;;;;;43.28;21.33;;;;;;;;;;5051450;28;20146;-43
2022/12/13 03:53:51;;;;;;;42.33;20.13;;;;;;;;;;5053773;28;20132;-42
2022/12/13 03:56:17;;;;;;;38.45;20.75;;;;;;;;;;5051731;28;20763;-41
2022/12/13 03:58:43;;;;;;;39.88;20.83;;;;;;;;;;5052003;28;20044;-41
2022/12/13 04:01:11;;;;;;;37.90;20.55;;;;;;;;;;5052868;28;20825;-42
2022/12/13 04:03:38;;;;;;;39.67;19.50;;;;;;;;;;5052816;28;20048;-41
2022/12/13 04:06:05;;;;;;;37.75;19.33;;;;;;;;;;5052562;28;20389;-43
2022/12/13 04:08:31;;;;;;;39.67;20.67;;;;;;;;;;5051954;28;20048;-42
2022/12/13 04:10:57;;;;;;;34.70;18.98;;;;;;;;;;5051740;28;20036;-42
2022/12/13 04:13:32;;;;;;;38.53;20.48;;;;;;;;;;5052382;28;20094;-41
2022/12/13 04:15:58;;;;;;;38.00;20.85;;;;;;;;;;5051617;28;20104;-42
2022/12/13 04:18:25;;;;;;;44.20;19.90;;;;;;;;;;5052114;28;20040;-43
2022/12/13 04:20:51;;;;;;;38.42;19.25;;;;;;;;;;5051089;28;20040;-43
2022/12/13 04:23:17;;;;;;;37.58;19.52;;;;;;;;;;5052217;28;20508;-42
2022/12/13 04:25:43;;;;;;;36.08;18.90;;;;;;;;;;5052795;28;20975;-43
2022/12/13 04:28:09;;;;;;;46.08;20.50;;;;;;;;;;5053519;28;20044;-42
2022/12/13 04:30:36;;;;;;;37.95;20.48;;;;;;;;;;5051551;28;20051;-41
2022/12/13 04:33:02;;;;;;;36.40;20.27;;;;;;;;;;5051910;28;20044;-43
2022/12/13 04:35:28;;;;;;;41.00;20.38;;;;;;;;;;5052141;28;20044;-43
2022/12/13 04:37:55;;;;;;;40.45;19.90;;;;;;;;;;5053636;28;20072;-43
2022/12/13 04:40:22;;;;;;;43.00;20.67;;;;;;;;;;5052805;28;20491;-44
2022/12/13 04:42:48;;;;;;;44.08;20.05;;;;;;;;;;5072740;27;20061;-42
2022/12/13 04:45:16;;;;;;;40.97;19.90;;;;;;;;;;5093390;28;20039;-41
2022/12/13 04:47:42;;;;;;;43.25;21.63;;;;;;;;;;5093220;28;20063;-43
2022/12/13 04:50:08;;;;;;;37.15;18.90;;;;;;;;;;5092816;28;20571;-42
2022/12/13 04:52:34;;;;;;;39.15;19.98;;;;;;;;;;5091979;27;20074;-41
2022/12/13 04:55:00;;;;;;;40.65;19.85;;;;;;;;;;5091895;28;20035;-44
2022/12/13 04:57:26;;;;;;;38.75;20.25;;;;;;;;;;5091952;28;20373;-41
2022/12/13 04:59:52;;;;;;;38.20;20.20;;;;;;;;;;5092467;28;20444;-42
2022/12/13 05:02:18;;;;;;;40.83;20.27;;;;;;;;;;5092704;28;20032;-42
2022/12/13 05:04:45;;;;;;;39.30;18.63;;;;;;;;;;5091547;28;20036;-45
2022/12/13 05:07:11;;;;;;;35.90;19.38;;;;;;;;;;5092420;28;20538;-43
2022/12/13 05:09:37;;;;;;;43.78;20.58;;;;;;;;;;5093312;28;20040;-43
2022/12/13 05:12:03;;;;;;;42.33;21.00;;;;;;;;;;5092755;28;20043;-45
2022/12/13 05:14:32;;;;;;;36.58;19.05;;;;;;;;;;5091607;28;20667;-45
2022/12/13 05:16:59;;;;;;;38.55;20.00;;;;;;;;;;5092973;28;20508;-47
2022/12/13 05:19:25;;;;;;;38.92;19.80;;;;;;;;;;5091317;28;20508;-43
2022/12/13 05:21:51;;;;;;;40.15;19.50;;;;;;;;;;5091962;28;20451;-44
2022/12/13 05:24:17;;;;;;;40.33;20.00;;;;;;;;;;5091926;28;20439;-45
2022/12/13 05:26:43;;;;;;;36.67;18.92;;;;;;;;;;5092145;28;20298;-43
2022/12/13 05:29:10;;;;;;;35.20;17.75;;;;;;;;;;5092191;28;20044;-45
2022/12/13 05:31:36;;;;;;;40.45;19.10;;;;;;;;;;5094358;28;20134;-44
2022/12/13 05:34:02;;;;;;;41.65;20.23;;;;;;;;;;5097020;27;20044;-43
2022/12/13 05:36:28;;;;;;;39.92;21.95;;;;;;;;;;5095916;28;20043;-45
2022/12/13 05:38:54;;;;;;;39.40;19.25;;;;;;;;;;5096868;27;20536;-47
2022/12/13 05:41:23;;;;;;;35.50;19.73;;;;;;;;;;5096778;27;20474;-47
2022/12/13 05:43:50;;;;;;;36.05;18.05;;;;;;;;;;5096102;27;20058;-47
2022/12/13 05:46:17;;;;;;;38.38;19.08;;;;;;;;;;5097610;27;20415;-42
2022/12/13 05:48:43;;;;;;;37.00;19.35;;;;;;;;;;5097877;27;20051;-46
2022/12/13 05:51:09;;;;;;;39.00;19.08;;;;;;;;;;5096931;27;20046;-46
2022/12/13 05:53:35;;;;;;;37.08;19.30;;;;;;;;;;5095876;28;20043;-44
2022/12/13 05:56:02;;;;;;;39.72;17.98;;;;;;;;;;5097101;27;20048;-47
2022/12/13 05:58:28;;;;;;;34.08;17.98;;;;;;;;;;5096772;27;20222;-46
2022/12/13 06:00:54;;;;;;;37.53;18.98;;;;;;;;;;5097262;27;20075;-46
2022/12/13 06:03:20;;;;;;;37.63;19.20;;;;;;;;;;5095290;27;20031;-46
2022/12/13 06:05:46;;;;;;;34.05;18.42;;;;;;;;;;5094530;28;20050;-45
2022/12/13 06:08:12;;;;;;;37.00;19.20;;;;;;;;;;5095897;27;20047;-47
2022/12/13 06:10:38;;;;;;;35.95;19.15;;;;;;;;;;5094000;27;20039;-46
2022/12/13 06:13:05;;;;;;;35.88;18.73;;;;;;;;;;5093940;27;20051;-47
2022/12/13 06:15:32;;;;;;;33.65;17.85;;;;;;;;;;5094327;27;20411;-42
2022/12/13 06:18:00;;;;;;;38.92;19.65;;;;;;;;;;5095770;27;20051;-47
2022/12/13 06:20:26;;;;;;;38.90;20.85;;;;;;;;;;5093728;27;20956;-42
2022/12/13 06:22:52;;;;;;;32.92;18.55;;;;;;;;;;5095007;27;20043;-47
2022/12/13 06:25:19;;;;;;;34.72;18.33;;;;;;;;;;5094806;27;20114;-44
2022/12/13 06:27:45;;;;;;;37.40;18.67;;;;;;;;;;5094181;27;20055;-44
2022/12/13 06:30:11;;;;;;;37.63;18.75;;;;;;;;;;5094342;27;20056;-44
2022/12/13 06:32:37;;;;;;;34.38;19.10;;;;;;;;;;5095173;27;20517;-44
2022/12/13 06:35:04;;;;;;;36.78;19.92;;;;;;;;;;5093804;27;20579;-44
2022/12/13 06:37:30;;;;;;;39.17;19.13;;;;;;;;;;5093851;27;20066;-43
2022/12/13 06:39:56;;;;;;;34.95;18.20;;;;;;;;;;5094100;28;20084;-43
2022/12/13 06:42:22;;;;;;;39.88;19.38;;;;;;;;;;5092666;27;20047;-42
2022/12/13 06:44:50;;;;;;;33.20;17.60;;;;;;;;;;5094267;27;20492;-45
2022/12/13 06:47:16;;;;;;;35.70;18.40;;;;;;;;;;5094450;27;20138;-43
2022/12/13 06:49:43;;;;;;;38.28;19.30;;;;;;;;;;5095677;28;20095;-44
2022/12/13 06:52:12;;;;;;;36.85;18.88;;;;;;;;;;5095389;28;20616;-43
2022/12/13 06:54:39;;;;;;;36.35;19.70;;;;;;;;;;5095842;27;20107;-42
2022/12/13 06:57:05;;;;;;;43.42;19.73;;;;;;;;;;5096774;27;20036;-44
2022/12/13 06:59:31;;;;;;;35.70;19.27;;;;;;;;;;5094706;27;20039;-43
2022/12/13 07:01:58;;;;;;;36.22;19.00;;;;;;;;;;5095024;27;20043;-44
2022/12/13 07:04:24;;;;;;;44.60;19.48;;;;;;;;;;5095696;28;22608;-42
2022/12/13 07:06:50;;;;;;;38.55;19.92;;;;;;;;;;5096019;27;20059;-46
2022/12/13 07:09:16;;;;;;;39.65;20.10;;;;;;;;;;5095815;27;20035;-45
2022/12/13 07:11:42;;;;;;;39.90;19.63;;;;;;;;;;5093481;28;20142;-42
2022/12/13 07:14:08;;;;;;;45.63;20.80;;;;;;;;;;5094768;27;20035;-42
2022/12/13 07:16:34;;;;;;;36.58;19.08;;;;;;;;;;5093558;27;20039;-42
2022/12/13 07:19:01;;;;;;;33.65;18.17;;;;;;;;;;5094193;27;20118;-43
2022/12/13 07:21:28;;;;;;;38.50;18.58;;;;;;;;;;5093713;27;20136;-42
2022/12/13 07:23:54;;;;;;;33.40;17.90;;;;;;;;;;5094622;27;20569;-41
2022/12/13 07:26:20;;;;;;;35.83;19.17;;;;;;;;;;5094308;27;20043;-43
2022/12/13 07:28:46;;;;;;;35.38;18.75;;;;;;;;;;5093895;28;20644;-45
2022/12/13 07:31:13;;;;;;;38.13;18.55;;;;;;;;;;5093699;27;20040;-43
2022/12/13 07:33:39;;;;;;;37.20;18.40;;;;;;;;;;5093352;27;20501;-41
2022/12/13 07:36:08;;;;;;;36.92;20.38;;;;;;;;;;5094242;27;20602;-46
2022/12/13 07:38:34;;;;;;;38.05;19.63;;;;;;;;;;5094711;27;20054;-45
2022/12/13 07:41:00;;;;;;;39.42;20.35;;;;;;;;;;5093674;27;20043;-46
2022/12/13 07:43:28;;;;;;;38.60;20.63;;;;;;;;;;5093887;27;20107;-45
2022/12/13 07:45:54;;;;;;;42.92;19.10;;;;;;;;;;5093421;27;20088;-41
2022/12/13 07:48:20;;;;;;;34.60;18.95;;;;;;;;;;5093940;27;20035;-46
2022/12/13 07:50:46;;;;;;;38.15;20.65;;;;;;;;;;5093101;27;20515;-43
2022/12/13 07:53:13;;;;;;;37.33;19.33;;;;;;;;;;5092776;28;20126;-42
2022/12/13 07:55:39;;;;;;;40.65;20.98;;;;;;;;;;5093358;27;20499;-43
2022/12/13 07:58:12;;;;;;;34.70;18.40;;;;;;;;;;5094114;27;20044;-42
2022/12/13 08:00:39;;;;;;;34.40;17.92;;;;;;;;;;5092855;27;21082;-42
2022/12/13 08:03:06;;;;;;;40.95;20.17;;;;;;;;;;5094904;27;20104;-46
2022/12/13 08:05:32;;;;;;;39.83;19.98;;;;;;;;;;5093334;27;20043;-41
2022/12/13 08:07:59;;;;;;;33.17;18.80;;;;;;;;;;5093618;27;20040;-43
2022/12/13 08:10:25;;;;;;;36.63;20.10;;;;;;;;;;5094142;27;20461;-41
2022/12/13 08:12:52;;;;;;;41.35;21.25;;;;;;;;;;5094001;27;20395;-44
2022/12/13 08:15:18;;;;;;;40.00;19.73;;;;;;;;;;5094467;27;20523;-42
2022/12/13 08:17:44;;;;;;;34.10;18.73;;;;;;;;;;5093887;28;20049;-43
2022/12/13 08:20:10;;;;;;;39.60;20.33;;;;;;;;;;5093990;28;20044;-45
2022/12/13 08:22:36;;;;;;;38.63;20.73;;;;;;;;;;5093858;28;20146;-47
2022/12/13 08:25:03;;;;;;;36.78;20.92;;;;;;;;;;5095298;28;20254;-43
2022/12/13 08:27:29;;;;;;;42.20;20.63;;;;;;;;;;5093982;27;20603;-46
2022/12/13 08:29:55;;;;;;;42.75;21.63;;;;;;;;;;5092063;28;20192;-43
2022/12/13 08:32:21;;;;;;;38.90;21.75;;;;;;;;;;5093162;28;20536;-44
2022/12/13 08:34:47;;;;;;;41.00;22.35;;;;;;;;;;5095160;27;20134;-45
2022/12/13 08:37:13;;;;;;;37.90;22.88;;;;;;;;;;5092916;27;20040;-42
2022/12/13 08:39:40;;;;;;;38.65;21.30;;;;;;;;;;5092607;28;20044;-46
2022/12/13 08:42:07;;;;;;;37.35;21.08;;;;;;;;;;5091888;28;20045;-45
2022/12/13 08:44:33;;;;;;;39.10;20.83;;;;;;;;;;5092894;27;20677;-47
2022/12/13 08:46:59;;;;;;;44.03;22.65;;;;;;;;;;5093483;28;20065;-41
2022/12/13 08:49:25;;;;;;;42.22;22.75;;;;;;;;;;5092484;27;20069;-41
2022/12/13 08:51:51;;;;;;;39.60;21.30;;;;;;;;;;5092473;28;20040;-43
2022/12/13 08:54:17;;;;;;;42.03;21.75;;;;;;;;;;5092380;27;20450;-44
2022/12/13 08:56:43;;;;;;;36.03;22.05;;;;;;;;;;5092889;28;20410;-42
2022/12/13 08:59:10;;;;;;;37.17;23.70;;;;;;;;;;5090763;28;20039;-42
2022/12/13 09:01:36;;;;;;;35.25;22.40;;;;;;;;;;5092237;28;20031;-43
2022/12/13 09:04:02;;;;;;;42.70;22.90;;;;;;;;;;5092917;28;20047;-43
2022/12/13 09:06:28;;;;;;;38.92;21.90;;;;;;;;;;5092002;28;20146;-43
2022/12/13 09:08:55;;;;;;;38.58;22.23;;;;;;;;;;5093276;28;20076;-42
2022/12/13 09:11:21;;;;;;;40.33;23.02;;;;;;;;;;5092056;28;20043;-44
2022/12/13 09:13:47;;;;;;;36.80;21.55;;;;;;;;;;5091885;28;21298;-42
2022/12/13 09:16:15;;;;;;;41.10;24.25;;;;;;;;;;5092084;28;20040;-42
2022/12/13 09:18:41;;;;;;;41.35;23.73;;;;;;;;;;5093774;28;20044;-42
2022/12/13 09:21:08;;;;;;;47.20;27.55;;;;;;;;;;5092804;28;20043;-45
2022/12/13 09:23:35;;;;;;;40.33;23.90;;;;;;;;;;5092990;28;20702;-43
2022/12/13 09:26:01;;;;;;;44.13;24.02;;;;;;;;;;5092967;28;20039;-42
2022/12/13 09:28:28;;;;;;;36.22;22.30;;;;;;;;;;5093607;28;20115;-43
2022/12/13 09:30:54;;;;;;;39.35;23.10;;;;;;;;;;5094114;28;20042;-42
2022/12/13 09:33:21;;;;;;;43.33;24.92;;;;;;;;;;5093478;28;20101;-42
2022/12/13 09:35:47;;;;;;;42.85;23.30;;;;;;;;;;5092777;28;20031;-47
2022/12/13 09:38:13;;;;;;;39.25;22.60;;;;;;;;;;5093415;28;20043;-48
2022/12/13 09:40:40;;;;;;;39.38;22.15;;;;;;;;;;5091631;28;20035;-44
2022/12/13 09:43:06;;;;;;;35.42;20.85;;;;;;;;;;5091672;28;20144;-41
2022/12/13 09:45:34;;;;;;;37.45;22.60;;;;;;;;;;5089663;28;20044;-42
2022/12/13 09:48:00;;;;;;;37.72;21.58;;;;;;;;;;5090914;28;20450;-42
2022/12/13 09:50:28;;;;;;;34.80;21.13;;;;;;;;;;5092800;28;20054;-48
2022/12/13 09:52:56;;;;;;;36.22;22.85;;;0.60;99.90;;;;;;5092129;28;20038;-43
2022/12/13 09:55:24;;;;;;;36.75;21.88;;;;;;;;;;5090685;28;20051;-43
2022/12/13 09:57:51;;;;;;;39.45;21.95;;;;;;;;;;5090955;28;20442;-47
2022/12/13 10:00:18;;;;;;;39.08;24.10;;;;;;;;;;5090787;28;20043;-43
2022/12/13 10:02:49;;;;;;;38.80;24.10;;;;;;;;;;5091065;28;20067;-43
2022/12/13 10:05:25;;;;;;;41.83;23.67;;;;;;;;;;5092264;28;20043;-43
2022/12/13 10:07:54;;;;;;;36.72;23.08;;;3.10;99.90;;;;;;5091341;28;20138;-44
2022/12/13 10:10:20;;;;;;;36.13;22.38;;;;;;;;;;5091586;28;20565;-47
2022/12/13 10:12:49;;;;;;;33.53;21.67;;;;;;;;;;5090953;27;20453;-44
2022/12/13 10:15:18;;;;;;;35.05;20.67;;;;;;;;;;5091768;28;20127;-44
2022/12/13 10:17:47;;;;;;;39.40;22.80;;;;;;;;;;5092264;27;20108;-44
2022/12/13 10:20:19;;;;;;;38.42;22.27;;;1.30;99.90;;;;;;5094085;27;20469;-46
2022/12/13 10:22:46;;;;;;;32.88;21.27;;;;;;;;;;5096203;27;20043;-44
2022/12/13 10:25:12;;;;;;;34.65;22.65;;;;;;;;;;5095721;27;20043;-48
2022/12/13 10:27:40;;;;;;;35.70;21.73;;;;;;;;;;5095244;28;20050;-48
2022/12/13 10:30:10;;;;;;;35.80;22.48;;;;;;;;;;5095369;27;20403;-43
2022/12/13 10:32:58;;;;;;;36.63;23.70;;;0.20;99.90;;;;;;5094718;28;20051;-44
2022/12/13 10:35:33;;;;;;;37.08;22.45;;;0.00;99.90;;;;;;5097145;27;20035;-45
2022/12/13 10:38:20;;;;;;;33.75;20.80;;;;;;;;;;5096301;27;20385;-43
2022/12/13 10:40:47;;;;;;;34.47;21.60;;;;;;;;;;5095866;27;20050;-45
2022/12/13 10:43:15;;;;;;;36.90;21.55;;;;;;;;;;5096251;28;20047;-42
2022/12/13 10:45:43;;;;;;;38.42;23.05;;;;;;;;;;5097219;27;20059;-43
2022/12/13 10:48:31;;;;;;;38.70;23.15;;;;;;;;;;5095828;27;20043;-42
2022/12/13 10:50:59;;;;;;;36.15;22.05;;;;;;;;;;5095326;27;20040;-43
2022/12/13 10:53:28;;;;;;;37.28;22.77;;;;;;;;;;5095230;28;20185;-43
2022/12/13 10:55:55;;;;;;;40.70;22.35;;;;;;;;;;5095386;27;20039;-45
2022/12/13 10:58:22;;;;;;;41.28;23.98;;;;;;;;;;5095668;27;20043;-44
2022/12/13 11:00:48;;;;;;;37.97;22.05;;;;;;;;;;5094896;28;20419;-42
2022/12/13 11:03:29;;;;;;;34.72;21.73;;;;;;;;;;5096578;27;20036;-44
2022/12/13 11:06:03;;;;;;;31.50;20.50;;;;;;;;;;5095816;28;20062;-47
2022/12/13 11:08:29;;;;;;;36.05;21.10;;;;;;;;;;5095211;27;20289;-42
2022/12/13 11:10:57;;;;;;;36.88;22.48;;;;;;;;;;5095196;27;20532;-41
2022/12/13 11:13:26;;;;;;;39.25;22.20;;;;;;;;;;5094810;27;20120;-43
2022/12/13 11:15:55;;;;;;;34.38;20.58;;;;;;;;;;5093696;27;20079;-44
2022/12/13 11:18:23;;;;;;;33.03;20.83;;;;;;;;;;5094112;27;20043;-41
2022/12/13 11:20:52;;;;;;;35.53;21.60;;;;;;;;;;5094767;28;20853;-45
2022/12/13 11:23:22;;;;;;;40.97;23.70;;;;;;;;;;5093499;27;20046;-42
2022/12/13 11:25:53;;;;;;;32.80;20.08;;;;;;;;;;5094248;27;20059;-42
2022/12/13 11:28:22;;;;;;;33.75;21.23;;;;;;;;;;5095415;27;20114;-41
2022/12/13 11:31:07;;;;;;;37.65;24.40;;;;;;;;;;5094148;27;20396;-42
2022/12/13 11:34:03;;;;;;;33.30;21.08;;;0.20;99.90;;;;;;5094540;27;20040;-41
2022/12/13 11:36:39;;;;;;;29.45;19.67;;;;;;;;;;5094355;28;20394;-43
2022/12/13 11:39:26;;;;;;;32.33;18.95;;;;;;;;;;5094843;27;20130;-42
2022/12/13 11:42:03;;;;;;;37.58;23.75;;;;;;;;;;5092168;27;20208;-43
2022/12/13 11:44:55;;;;;;;36.13;26.25;;;;;;;;;;5126816;27;21127;-41
2022/12/13 11:47:30;;;;;;;35.83;23.25;;;0.30;99.90;;;;;;5092940;27;20039;-42
2022/12/13 11:49:56;;;;;;;28.15;18.77;;;;;;;;;;5090645;28;20032;-42
2022/12/13 11:52:30;;;;;;;35.35;21.60;;;;;;;;;;5093209;27;20075;-47
2022/12/13 11:54:56;;;;;;;29.98;18.05;;;;;;;;;;5092796;27;20201;-44
2022/12/13 11:57:42;;;;;;;32.15;17.80;;;;;;;;;;5094018;28;20199;-44
2022/12/13 12:00:11;;;;;;;30.35;17.58;;;;;;;;;;5093912;27;20054;-43
2022/12/13 12:02:41;;;;;;;33.25;17.58;;;;;;;;;;5092728;28;20053;-43
2022/12/13 12:05:19;;;;;;;29.60;19.08;;;;;;;;;;5096103;27;20036;-42
2022/12/13 12:07:49;;;;;;;27.13;17.05;;;;;;;;;;5093943;27;20262;-42
2022/12/13 12:10:23;;;;;;;28.50;17.60;;;;;;;;;;5094923;27;20080;-42
2022/12/13 12:12:55;;;;;;;27.88;17.20;;;;;;;;;;5093429;27;20040;-42
2022/12/13 12:15:32;;;;;;;26.53;17.17;;;;;;;;;;5094099;27;20046;-44
2022/12/13 12:17:58;;;;;;;27.80;17.73;;;;;;;;;;5091728;27;20047;-44
2022/12/13 12:20:44;;;;;;;29.38;17.38;;;;;;;;;;5094455;27;20044;-43
2022/12/13 12:23:13;;;;;;;26.77;16.70;;;;;;;;;;5093817;27;20508;-41
2022/12/13 12:25:46;;;;;;;29.48;17.77;;;;;;;;;;5094755;27;20044;-46
2022/12/13 12:28:18;;;;;;;26.58;16.25;;;;;;;;;;5094904;27;20039;-42
2022/12/13 12:31:10;;;;;;;24.50;15.13;;;0.50;99.90;;;;;;5094079;27;20048;-40
2022/12/13 12:33:39;;;;;;;26.92;15.75;;;;;;;;;;5092789;27;20048;-41
2022/12/13 12:36:05;;;;;;;27.38;16.27;;;;;;;;;;5093992;28;20046;-41
2022/12/13 12:38:31;;;;;;;30.23;17.65;;;;;;;;;;5092389;28;20093;-43
2022/12/13 12:41:18;;;;;;;26.35;17.13;;;;;;;;;;5091696;27;20496;-45
2022/12/13 12:43:44;;;;;;;25.35;16.67;;;;;;;;;;5069461;27;20539;-44
2022/12/13 12:46:34;;;;;;;27.55;16.40;;;;;;;;;;5092127;28;20276;-45
2022/12/13 12:49:19;;;;;;;25.58;14.75;;;;;;;;;;5092377;28;20451;-44
2022/12/13 12:51:57;;;;;;;25.48;15.52;;;;;;;;;;5091587;27;20589;-41
2022/12/13 12:54:42;;;;;;;23.77;14.77;;;;;;;;;;5092697;28;20043;-40
2022/12/13 12:57:19;;;;;;;21.20;14.35;;;;;;;;;;5091469;28;20040;-41
2022/12/13 13:00:10;;;;;;;22.02;15.23;;;0.60;99.90;;;;;;5091965;28;20522;-42
2022/12/13 13:02:40;;;;;;;23.88;15.30;;;;;;;;;;5091812;28;20036;-44
2022/12/13 13:05:12;;;;;;;25.95;16.17;;;;;;;;;;5092520;28;20027;-43
2022/12/13 13:07:43;;;;;;;25.85;15.82;;;;;;;;;;5090975;28;20054;-42
2022/12/13 13:10:09;;;;;;;23.75;15.63;;;;;;;;;;5091870;28;20082;-41
2022/12/13 13:12:38;;;;;;;27.85;16.02;;;;;;;;;;5091380;28;20060;-41
2022/12/13 13:15:32;;;;;;;29.75;18.55;;;0.60;99.90;;;;;;5090619;28;20059;-41
2022/12/13 13:18:01;;;;;;;29.13;16.30;;;;;;;;;;5091648;28;20151;-43
2022/12/13 13:20:28;;;;;;;23.63;15.07;;;;;;;;;;5092408;28;20039;-41
2022/12/13 13:22:57;;;;;;;22.05;14.68;;;0.80;99.90;;;;;;5091215;28;20131;-41
2022/12/13 13:25:31;;;;;;;29.83;17.00;;;;;;;;;;5091649;28;21020;-41
2022/12/13 13:28:14;;;;;;;28.15;16.75;;;;;;;;;;5091683;28;20561;-40
2022/12/13 13:30:59;;;;;;;25.45;16.42;;;;;;;;;;5093332;28;20116;-40
2022/12/13 13:33:44;;;;;;;25.40;16.65;;;;;;;;;;5093027;28;20048;-42
2022/12/13 13:36:56;;;;;;;25.60;15.32;;;0.60;99.90;;;;;;5093404;28;20040;-41
2022/12/13 13:39:27;;;;;;;28.38;17.23;;;0.50;99.90;;;;;;5090528;28;20496;-42
2022/12/13 13:41:54;;;;;;;30.23;18.00;;;;;;;;;;5092329;28;20050;-42
2022/12/13 13:44:44;;;;;;;26.98;16.85;;;0.50;99.90;;;;;;5092107;28;20052;-42
2022/12/13 13:47:13;;;;;;;29.15;17.40;;;;;;;;;;5092341;28;20035;-40
2022/12/13 13:49:45;;;;;;;27.45;16.42;;;;;;;;;;5092205;28;20049;-42
2022/12/13 13:52:22;;;;;;;29.80;17.52;;;;;;;;;;5093838;27;20040;-42
2022/12/13 13:55:00;;;;;;;25.63;16.80;;;;;;;;;;5095847;27;20050;-41
2022/12/13 13:57:37;;;;;;;24.45;16.45;;;;;;;;;;5095818;27;20039;-42
2022/12/13 14:00:18;;;;;;;27.42;16.13;;;;;;;;;;5095580;28;20150;-41
2022/12/13 14:03:27;;;;;;;26.63;17.02;;;0.40;99.90;;;;;;5095513;27;20043;-43
2022/12/13 14:06:24;;;;;;;24.85;16.20;;;0.30;99.90;;;;;;5085977;27;20058;-42
2022/12/13 14:08:58;;;;;;;28.63;17.08;;;0.30;99.90;;;;;;5094950;27;20381;-43
2022/12/13 14:11:24;;;;;;;24.10;16.55;;;;;;;;;;5096052;27;20039;-42
2022/12/13 14:13:50;;;;;;;32.58;18.38;;;;;;;;;;5096024;27;20040;-42
2022/12/13 14:16:38;;;;;;;28.77;18.10;;;;;;;;;;5096628;27;20488;-42
2022/12/13 14:19:41;;;;;;;26.85;17.20;;;-0.10;99.90;;;;;;5095506;27;20142;-42
2022/12/13 14:22:07;;;;;;;29.10;17.55;;;;;;;;;;5094690;27;20400;-42
2022/12/13 14:24:40;;;;;;;26.92;16.60;;;;;;;;;;5095088;27;20644;-42
2022/12/13 14:27:16;;;;;;;25.33;16.48;;;;;;;;;;5094129;27;20099;-45